sensor_id;sensor_type;location;lat;lon;timestamp;P1;durP1;ratioP1;P2;durP2;ratioP2
25237;SDS011;13185;50.872;5.306;2023-12-07T00:01:09;20.30;;;12.40;;
25237;SDS011;13185;50.872;5.306;2023-12-07T00:03:35;22.47;;;13.33;;
25237;SDS011;13185;50.872;5.306;2023-12-07T00:06:00;23.20;;;13.37;;
25237;SDS011;13185;50.872;5.306;2023-12-07T00:08:26;23.13;;;13.93;;
25237;SDS011;13185;50.872;5.306;2023-12-07T00:10:51;25.63;;;12.67;;
25237;SDS011;13185;50.872;5.306;2023-12-07T00:13:17;21.60;;;13.27;;
25237;SDS011;13185;50.872;5.306;2023-12-07T00:15:43;23.73;;;14.37;;
25237;SDS011;13185;50.872;5.306;2023-12-07T00:18:09;21.50;;;14.17;;
25237;SDS011;13185;50.872;5.306;2023-12-07T00:20:35;24.00;;;14.10;;
25237;SDS011;13185;50.872;5.306;2023-12-07T00:23:00;24.00;;;13.77;;
25237;SDS011;13185;50.872;5.306;2023-12-07T00:25:26;23.53;;;14.17;;
25237;SDS011;13185;50.872;5.306;2023-12-07T00:27:51;23.60;;;14.20;;
25237;SDS011;13185;50.872;5.306;2023-12-07T00:30:17;22.73;;;14.00;;
25237;SDS011;13185;50.872;5.306;2023-12-07T00:32:43;22.77;;;13.27;;
25237;SDS011;13185;50.872;5.306;2023-12-07T00:35:17;21.80;;;13.30;;
25237;SDS011;13185;50.872;5.306;2023-12-07T00:37:47;26.00;;;15.10;;
25237;SDS011;13185;50.872;5.306;2023-12-07T00:40:12;25.97;;;13.70;;
25237;SDS011;13185;50.872;5.306;2023-12-07T00:42:38;21.73;;;12.67;;
25237;SDS011;13185;50.872;5.306;2023-12-07T00:45:03;23.97;;;14.00;;
25237;SDS011;13185;50.872;5.306;2023-12-07T00:47:29;23.47;;;13.60;;
25237;SDS011;13185;50.872;5.306;2023-12-07T00:49:55;22.47;;;13.27;;
25237;SDS011;13185;50.872;5.306;2023-12-07T00:52:20;22.57;;;12.23;;
25237;SDS011;13185;50.872;5.306;2023-12-07T00:54:46;22.10;;;13.27;;
25237;SDS011;13185;50.872;5.306;2023-12-07T00:57:11;23.20;;;12.97;;
25237;SDS011;13185;50.872;5.306;2023-12-07T00:59:37;22.20;;;13.30;;
25237;SDS011;13185;50.872;5.306;2023-12-07T01:02:03;23.60;;;13.47;;
25237;SDS011;13185;50.872;5.306;2023-12-07T01:04:30;22.90;;;12.73;;
25237;SDS011;13185;50.872;5.306;2023-12-07T01:06:56;25.50;;;13.27;;
25237;SDS011;13185;50.872;5.306;2023-12-07T01:09:22;18.97;;;11.57;;
25237;SDS011;13185;50.872;5.306;2023-12-07T01:11:48;23.37;;;12.60;;
25237;SDS011;13185;50.872;5.306;2023-12-07T01:14:14;22.03;;;13.57;;
25237;SDS011;13185;50.872;5.306;2023-12-07T01:16:40;20.53;;;11.87;;
25237;SDS011;13185;50.872;5.306;2023-12-07T01:19:06;19.77;;;12.43;;
25237;SDS011;13185;50.872;5.306;2023-12-07T01:21:32;19.80;;;11.97;;
25237;SDS011;13185;50.872;5.306;2023-12-07T01:23:58;19.83;;;11.73;;
25237;SDS011;13185;50.872;5.306;2023-12-07T01:26:24;19.77;;;11.60;;
25237;SDS011;13185;50.872;5.306;2023-12-07T01:28:49;25.43;;;11.27;;
25237;SDS011;13185;50.872;5.306;2023-12-07T01:31:15;17.13;;;10.73;;
25237;SDS011;13185;50.872;5.306;2023-12-07T01:33:42;19.50;;;11.40;;
25237;SDS011;13185;50.872;5.306;2023-12-07T01:36:13;19.73;;;11.17;;
25237;SDS011;13185;50.872;5.306;2023-12-07T01:38:39;18.97;;;11.10;;
25237;SDS011;13185;50.872;5.306;2023-12-07T01:41:05;24.87;;;9.73;;
25237;SDS011;13185;50.872;5.306;2023-12-07T01:43:30;16.53;;;10.90;;
25237;SDS011;13185;50.872;5.306;2023-12-07T01:45:56;17.20;;;10.23;;
25237;SDS011;13185;50.872;5.306;2023-12-07T01:48:23;16.93;;;10.00;;
25237;SDS011;13185;50.872;5.306;2023-12-07T01:50:51;26.87;;;10.23;;
25237;SDS011;13185;50.872;5.306;2023-12-07T01:53:19;17.67;;;10.23;;
25237;SDS011;13185;50.872;5.306;2023-12-07T01:55:48;17.60;;;10.00;;
25237;SDS011;13185;50.872;5.306;2023-12-07T01:58:15;15.77;;;9.73;;
25237;SDS011;13185;50.872;5.306;2023-12-07T02:00:43;16.33;;;9.90;;
25237;SDS011;13185;50.872;5.306;2023-12-07T02:03:09;21.53;;;8.93;;
25237;SDS011;13185;50.872;5.306;2023-12-07T02:05:36;15.47;;;9.30;;
25237;SDS011;13185;50.872;5.306;2023-12-07T02:08:02;17.40;;;8.80;;
25237;SDS011;13185;50.872;5.306;2023-12-07T02:10:29;18.13;;;9.77;;
25237;SDS011;13185;50.872;5.306;2023-12-07T02:12:55;17.87;;;9.23;;
25237;SDS011;13185;50.872;5.306;2023-12-07T02:15:21;16.13;;;8.90;;
25237;SDS011;13185;50.872;5.306;2023-12-07T02:20:26;17.97;;;9.60;;
25237;SDS011;13185;50.872;5.306;2023-12-07T02:22:57;18.07;;;9.07;;
25237;SDS011;13185;50.872;5.306;2023-12-07T02:25:39;17.47;;;9.93;;
25237;SDS011;13185;50.872;5.306;2023-12-07T02:28:13;19.43;;;10.43;;
25237;SDS011;13185;50.872;5.306;2023-12-07T02:30:39;20.23;;;10.80;;
25237;SDS011;13185;50.872;5.306;2023-12-07T02:33:04;19.23;;;10.13;;
25237;SDS011;13185;50.872;5.306;2023-12-07T02:35:30;18.97;;;9.80;;
25237;SDS011;13185;50.872;5.306;2023-12-07T02:37:56;17.90;;;10.20;;
25237;SDS011;13185;50.872;5.306;2023-12-07T02:40:23;21.47;;;11.50;;
25237;SDS011;13185;50.872;5.306;2023-12-07T02:42:51;22.47;;;10.80;;
25237;SDS011;13185;50.872;5.306;2023-12-07T02:45:18;21.97;;;10.80;;
25237;SDS011;13185;50.872;5.306;2023-12-07T02:47:44;22.10;;;10.97;;
25237;SDS011;13185;50.872;5.306;2023-12-07T02:50:10;21.47;;;11.63;;
25237;SDS011;13185;50.872;5.306;2023-12-07T02:52:37;26.47;;;12.90;;
25237;SDS011;13185;50.872;5.306;2023-12-07T02:55:03;21.23;;;11.27;;
25237;SDS011;13185;50.872;5.306;2023-12-07T02:57:29;19.80;;;11.30;;
25237;SDS011;13185;50.872;5.306;2023-12-07T02:59:55;23.73;;;12.37;;
25237;SDS011;13185;50.872;5.306;2023-12-07T03:02:21;19.33;;;11.13;;
25237;SDS011;13185;50.872;5.306;2023-12-07T03:04:47;23.07;;;12.00;;
25237;SDS011;13185;50.872;5.306;2023-12-07T03:07:12;21.90;;;10.93;;
25237;SDS011;13185;50.872;5.306;2023-12-07T03:09:38;19.40;;;10.60;;
25237;SDS011;13185;50.872;5.306;2023-12-07T03:12:04;20.53;;;11.47;;
25237;SDS011;13185;50.872;5.306;2023-12-07T03:14:30;21.57;;;12.27;;
25237;SDS011;13185;50.872;5.306;2023-12-07T03:16:55;18.60;;;10.93;;
25237;SDS011;13185;50.872;5.306;2023-12-07T03:19:21;18.93;;;11.00;;
25237;SDS011;13185;50.872;5.306;2023-12-07T03:21:46;19.90;;;11.33;;
25237;SDS011;13185;50.872;5.306;2023-12-07T03:24:12;16.80;;;10.63;;
25237;SDS011;13185;50.872;5.306;2023-12-07T03:26:38;17.77;;;9.70;;
25237;SDS011;13185;50.872;5.306;2023-12-07T03:29:03;18.37;;;8.87;;
25237;SDS011;13185;50.872;5.306;2023-12-07T03:31:29;16.00;;;8.53;;
25237;SDS011;13185;50.872;5.306;2023-12-07T03:33:55;13.73;;;8.37;;
25237;SDS011;13185;50.872;5.306;2023-12-07T03:36:21;13.63;;;7.70;;
25237;SDS011;13185;50.872;5.306;2023-12-07T03:38:48;12.43;;;7.97;;
25237;SDS011;13185;50.872;5.306;2023-12-07T03:41:14;14.20;;;8.57;;
25237;SDS011;13185;50.872;5.306;2023-12-07T03:43:40;14.50;;;9.10;;
25237;SDS011;13185;50.872;5.306;2023-12-07T03:46:08;12.83;;;7.53;;
25237;SDS011;13185;50.872;5.306;2023-12-07T03:48:34;14.23;;;7.87;;
25237;SDS011;13185;50.872;5.306;2023-12-07T03:51:00;15.27;;;8.40;;
25237;SDS011;13185;50.872;5.306;2023-12-07T03:53:27;13.80;;;7.80;;
25237;SDS011;13185;50.872;5.306;2023-12-07T03:55:52;14.67;;;8.03;;
25237;SDS011;13185;50.872;5.306;2023-12-07T03:58:18;13.03;;;8.20;;
25237;SDS011;13185;50.872;5.306;2023-12-07T04:00:44;14.30;;;8.37;;
25237;SDS011;13185;50.872;5.306;2023-12-07T04:03:10;12.40;;;7.70;;
25237;SDS011;13185;50.872;5.306;2023-12-07T04:05:36;13.20;;;8.13;;
25237;SDS011;13185;50.872;5.306;2023-12-07T04:08:02;12.97;;;7.07;;
25237;SDS011;13185;50.872;5.306;2023-12-07T04:10:30;10.97;;;7.20;;
25237;SDS011;13185;50.872;5.306;2023-12-07T04:12:56;11.53;;;6.93;;
25237;SDS011;13185;50.872;5.306;2023-12-07T04:15:22;9.40;;;6.20;;
25237;SDS011;13185;50.872;5.306;2023-12-07T04:17:48;9.73;;;6.50;;
25237;SDS011;13185;50.872;5.306;2023-12-07T04:20:14;9.30;;;6.37;;
25237;SDS011;13185;50.872;5.306;2023-12-07T04:22:40;10.43;;;7.00;;
25237;SDS011;13185;50.872;5.306;2023-12-07T04:25:05;11.70;;;6.73;;
25237;SDS011;13185;50.872;5.306;2023-12-07T04:27:32;11.33;;;6.57;;
25237;SDS011;13185;50.872;5.306;2023-12-07T04:29:58;10.13;;;6.10;;
25237;SDS011;13185;50.872;5.306;2023-12-07T04:32:24;12.13;;;6.90;;
25237;SDS011;13185;50.872;5.306;2023-12-07T04:34:52;13.77;;;7.53;;
25237;SDS011;13185;50.872;5.306;2023-12-07T04:37:18;11.20;;;6.43;;
25237;SDS011;13185;50.872;5.306;2023-12-07T04:39:44;11.73;;;6.37;;
25237;SDS011;13185;50.872;5.306;2023-12-07T04:42:09;9.20;;;6.13;;
25237;SDS011;13185;50.872;5.306;2023-12-07T04:44:35;11.60;;;6.67;;
25237;SDS011;13185;50.872;5.306;2023-12-07T04:47:00;10.60;;;6.33;;
25237;SDS011;13185;50.872;5.306;2023-12-07T04:49:26;11.37;;;7.00;;
25237;SDS011;13185;50.872;5.306;2023-12-07T04:51:52;12.23;;;6.70;;
25237;SDS011;13185;50.872;5.306;2023-12-07T04:54:17;10.37;;;6.53;;
25237;SDS011;13185;50.872;5.306;2023-12-07T04:56:43;12.10;;;6.67;;
25237;SDS011;13185;50.872;5.306;2023-12-07T04:59:09;10.47;;;6.27;;
25237;SDS011;13185;50.872;5.306;2023-12-07T05:01:37;11.57;;;6.20;;
25237;SDS011;13185;50.872;5.306;2023-12-07T05:04:04;11.57;;;6.13;;
25237;SDS011;13185;50.872;5.306;2023-12-07T05:06:30;13.07;;;7.40;;
25237;SDS011;13185;50.872;5.306;2023-12-07T05:08:56;10.17;;;6.00;;
25237;SDS011;13185;50.872;5.306;2023-12-07T05:11:22;9.90;;;5.83;;
25237;SDS011;13185;50.872;5.306;2023-12-07T05:13:47;10.47;;;6.27;;
25237;SDS011;13185;50.872;5.306;2023-12-07T05:16:14;14.40;;;6.40;;
25237;SDS011;13185;50.872;5.306;2023-12-07T05:18:39;10.60;;;6.33;;
25237;SDS011;13185;50.872;5.306;2023-12-07T05:21:05;10.60;;;6.50;;
25237;SDS011;13185;50.872;5.306;2023-12-07T05:23:31;11.07;;;6.60;;
25237;SDS011;13185;50.872;5.306;2023-12-07T05:25:56;11.67;;;7.00;;
25237;SDS011;13185;50.872;5.306;2023-12-07T05:28:22;12.13;;;6.90;;
25237;SDS011;13185;50.872;5.306;2023-12-07T05:30:48;10.53;;;6.97;;
25237;SDS011;13185;50.872;5.306;2023-12-07T05:33:14;11.53;;;8.07;;
25237;SDS011;13185;50.872;5.306;2023-12-07T05:35:40;12.43;;;7.20;;
25237;SDS011;13185;50.872;5.306;2023-12-07T05:38:05;12.17;;;7.53;;
25237;SDS011;13185;50.872;5.306;2023-12-07T05:40:31;11.53;;;7.97;;
25237;SDS011;13185;50.872;5.306;2023-12-07T05:42:57;10.93;;;7.27;;
25237;SDS011;13185;50.872;5.306;2023-12-07T05:45:22;13.50;;;8.47;;
25237;SDS011;13185;50.872;5.306;2023-12-07T05:47:48;13.83;;;8.67;;
25237;SDS011;13185;50.872;5.306;2023-12-07T05:50:13;12.10;;;7.60;;
25237;SDS011;13185;50.872;5.306;2023-12-07T05:52:39;12.30;;;7.80;;
25237;SDS011;13185;50.872;5.306;2023-12-07T05:55:05;17.43;;;8.27;;
25237;SDS011;13185;50.872;5.306;2023-12-07T05:57:30;13.20;;;8.27;;
25237;SDS011;13185;50.872;5.306;2023-12-07T05:59:56;11.00;;;7.67;;
25237;SDS011;13185;50.872;5.306;2023-12-07T06:02:21;12.97;;;8.17;;
25237;SDS011;13185;50.872;5.306;2023-12-07T06:04:47;12.37;;;8.30;;
25237;SDS011;13185;50.872;5.306;2023-12-07T06:07:13;11.77;;;7.50;;
25237;SDS011;13185;50.872;5.306;2023-12-07T06:09:38;11.87;;;7.53;;
25237;SDS011;13185;50.872;5.306;2023-12-07T06:12:04;10.77;;;7.63;;
25237;SDS011;13185;50.872;5.306;2023-12-07T06:14:29;12.20;;;8.10;;
25237;SDS011;13185;50.872;5.306;2023-12-07T06:16:55;13.87;;;8.33;;
25237;SDS011;13185;50.872;5.306;2023-12-07T06:19:20;11.87;;;7.40;;
25237;SDS011;13185;50.872;5.306;2023-12-07T06:21:46;9.87;;;6.97;;
25237;SDS011;13185;50.872;5.306;2023-12-07T06:24:12;14.70;;;7.57;;
25237;SDS011;13185;50.872;5.306;2023-12-07T06:26:39;12.93;;;7.27;;
25237;SDS011;13185;50.872;5.306;2023-12-07T06:29:05;11.17;;;8.13;;
25237;SDS011;13185;50.872;5.306;2023-12-07T06:31:32;11.10;;;7.27;;
25237;SDS011;13185;50.872;5.306;2023-12-07T06:33:58;13.20;;;7.27;;
25237;SDS011;13185;50.872;5.306;2023-12-07T06:36:25;9.63;;;7.10;;
25237;SDS011;13185;50.872;5.306;2023-12-07T06:38:52;11.30;;;7.40;;
25237;SDS011;13185;50.872;5.306;2023-12-07T06:41:20;12.07;;;8.03;;
25237;SDS011;13185;50.872;5.306;2023-12-07T06:43:45;12.07;;;7.80;;
25237;SDS011;13185;50.872;5.306;2023-12-07T06:46:11;15.87;;;8.10;;
25237;SDS011;13185;50.872;5.306;2023-12-07T06:48:38;12.90;;;7.63;;
25237;SDS011;13185;50.872;5.306;2023-12-07T06:51:03;12.37;;;7.30;;
25237;SDS011;13185;50.872;5.306;2023-12-07T06:53:29;10.10;;;7.27;;
25237;SDS011;13185;50.872;5.306;2023-12-07T06:55:56;15.73;;;8.20;;
25237;SDS011;13185;50.872;5.306;2023-12-07T06:58:22;13.00;;;8.00;;
25237;SDS011;13185;50.872;5.306;2023-12-07T07:00:48;10.70;;;7.20;;
25237;SDS011;13185;50.872;5.306;2023-12-07T07:03:14;10.77;;;7.10;;
25237;SDS011;13185;50.872;5.306;2023-12-07T07:05:40;12.83;;;7.57;;
25237;SDS011;13185;50.872;5.306;2023-12-07T07:08:05;15.50;;;7.97;;
25237;SDS011;13185;50.872;5.306;2023-12-07T07:10:33;25.63;;;8.23;;
25237;SDS011;13185;50.872;5.306;2023-12-07T07:13:07;52.37;;;10.67;;
25237;SDS011;13185;50.872;5.306;2023-12-07T07:15:33;74.13;;;13.03;;
25237;SDS011;13185;50.872;5.306;2023-12-07T07:17:59;59.77;;;10.90;;
25237;SDS011;13185;50.872;5.306;2023-12-07T07:20:25;47.97;;;10.73;;
25237;SDS011;13185;50.872;5.306;2023-12-07T07:22:51;16.97;;;7.70;;
25237;SDS011;13185;50.872;5.306;2023-12-07T07:25:17;11.43;;;7.00;;
25237;SDS011;13185;50.872;5.306;2023-12-07T07:27:45;13.67;;;8.00;;
25237;SDS011;13185;50.872;5.306;2023-12-07T07:30:11;20.47;;;8.43;;
25237;SDS011;13185;50.872;5.306;2023-12-07T07:32:37;45.87;;;9.33;;
25237;SDS011;13185;50.872;5.306;2023-12-07T07:35:03;34.60;;;9.77;;
25237;SDS011;13185;50.872;5.306;2023-12-07T07:37:29;21.53;;;8.27;;
25237;SDS011;13185;50.872;5.306;2023-12-07T07:39:54;15.07;;;8.40;;
25237;SDS011;13185;50.872;5.306;2023-12-07T07:42:20;24.83;;;8.40;;
25237;SDS011;13185;50.872;5.306;2023-12-07T07:44:45;15.33;;;8.10;;
25237;SDS011;13185;50.872;5.306;2023-12-07T07:47:11;13.07;;;7.20;;
25237;SDS011;13185;50.872;5.306;2023-12-07T07:49:36;15.10;;;8.23;;
25237;SDS011;13185;50.872;5.306;2023-12-07T07:52:02;14.27;;;7.37;;
25237;SDS011;13185;50.872;5.306;2023-12-07T07:54:30;17.00;;;7.70;;
25237;SDS011;13185;50.872;5.306;2023-12-07T07:56:55;10.67;;;6.60;;
25237;SDS011;13185;50.872;5.306;2023-12-07T07:59:21;15.00;;;6.97;;
25237;SDS011;13185;50.872;5.306;2023-12-07T08:01:46;14.10;;;7.57;;
25237;SDS011;13185;50.872;5.306;2023-12-07T08:04:12;15.80;;;7.23;;
25237;SDS011;13185;50.872;5.306;2023-12-07T08:06:38;20.63;;;7.63;;
25237;SDS011;13185;50.872;5.306;2023-12-07T08:09:03;15.70;;;8.10;;
25237;SDS011;13185;50.872;5.306;2023-12-07T08:11:29;11.27;;;7.27;;
25237;SDS011;13185;50.872;5.306;2023-12-07T08:13:55;10.13;;;6.57;;
25237;SDS011;13185;50.872;5.306;2023-12-07T08:16:20;12.70;;;7.87;;
25237;SDS011;13185;50.872;5.306;2023-12-07T08:18:45;14.80;;;8.43;;
25237;SDS011;13185;50.872;5.306;2023-12-07T08:21:19;15.20;;;8.30;;
25237;SDS011;13185;50.872;5.306;2023-12-07T08:23:48;15.03;;;7.53;;
25237;SDS011;13185;50.872;5.306;2023-12-07T08:26:14;13.73;;;8.23;;
25237;SDS011;13185;50.872;5.306;2023-12-07T08:28:42;19.00;;;7.83;;
25237;SDS011;13185;50.872;5.306;2023-12-07T08:31:09;22.83;;;7.97;;
25237;SDS011;13185;50.872;5.306;2023-12-07T08:33:35;11.83;;;7.27;;
25237;SDS011;13185;50.872;5.306;2023-12-07T08:36:01;12.77;;;6.67;;
25237;SDS011;13185;50.872;5.306;2023-12-07T08:38:27;15.73;;;8.00;;
25237;SDS011;13185;50.872;5.306;2023-12-07T08:40:53;13.90;;;8.10;;
25237;SDS011;13185;50.872;5.306;2023-12-07T08:43:20;11.90;;;6.43;;
25237;SDS011;13185;50.872;5.306;2023-12-07T08:45:50;9.50;;;6.57;;
25237;SDS011;13185;50.872;5.306;2023-12-07T08:48:19;15.00;;;8.13;;
25237;SDS011;13185;50.872;5.306;2023-12-07T08:50:44;11.60;;;7.27;;
25237;SDS011;13185;50.872;5.306;2023-12-07T08:53:10;9.17;;;7.10;;
25237;SDS011;13185;50.872;5.306;2023-12-07T08:55:35;10.87;;;7.40;;
25237;SDS011;13185;50.872;5.306;2023-12-07T08:58:01;12.67;;;7.10;;
25237;SDS011;13185;50.872;5.306;2023-12-07T09:00:30;14.50;;;7.47;;
25237;SDS011;13185;50.872;5.306;2023-12-07T09:02:56;12.83;;;6.90;;
25237;SDS011;13185;50.872;5.306;2023-12-07T09:05:22;13.20;;;7.40;;
25237;SDS011;13185;50.872;5.306;2023-12-07T09:07:47;10.33;;;7.00;;
25237;SDS011;13185;50.872;5.306;2023-12-07T09:10:13;12.07;;;6.30;;
25237;SDS011;13185;50.872;5.306;2023-12-07T09:12:38;11.97;;;7.60;;
25237;SDS011;13185;50.872;5.306;2023-12-07T09:15:04;13.67;;;7.23;;
25237;SDS011;13185;50.872;5.306;2023-12-07T09:17:32;10.47;;;6.53;;
25237;SDS011;13185;50.872;5.306;2023-12-07T09:19:58;9.13;;;6.20;;
25237;SDS011;13185;50.872;5.306;2023-12-07T09:22:23;13.90;;;6.80;;
25237;SDS011;13185;50.872;5.306;2023-12-07T09:24:50;9.37;;;6.73;;
25237;SDS011;13185;50.872;5.306;2023-12-07T09:27:15;11.53;;;6.97;;
25237;SDS011;13185;50.872;5.306;2023-12-07T09:29:41;10.70;;;6.37;;
25237;SDS011;13185;50.872;5.306;2023-12-07T09:32:07;9.27;;;6.10;;
25237;SDS011;13185;50.872;5.306;2023-12-07T09:34:32;10.77;;;6.30;;
25237;SDS011;13185;50.872;5.306;2023-12-07T09:37:07;9.63;;;6.47;;
25237;SDS011;13185;50.872;5.306;2023-12-07T09:39:36;8.33;;;6.27;;
25237;SDS011;13185;50.872;5.306;2023-12-07T09:42:02;8.80;;;5.40;;
25237;SDS011;13185;50.872;5.306;2023-12-07T09:44:28;11.00;;;5.77;;
25237;SDS011;13185;50.872;5.306;2023-12-07T09:46:54;9.93;;;5.80;;
25237;SDS011;13185;50.872;5.306;2023-12-07T09:49:20;8.27;;;5.73;;
25237;SDS011;13185;50.872;5.306;2023-12-07T09:51:46;9.23;;;5.93;;
25237;SDS011;13185;50.872;5.306;2023-12-07T09:54:12;7.57;;;5.70;;
25237;SDS011;13185;50.872;5.306;2023-12-07T09:56:38;13.57;;;5.93;;
25237;SDS011;13185;50.872;5.306;2023-12-07T09:59:04;13.13;;;5.97;;
25237;SDS011;13185;50.872;5.306;2023-12-07T10:01:30;9.87;;;6.33;;
25237;SDS011;13185;50.872;5.306;2023-12-07T10:04:15;10.00;;;5.60;;
25237;SDS011;13185;50.872;5.306;2023-12-07T10:06:44;7.77;;;5.73;;
25237;SDS011;13185;50.872;5.306;2023-12-07T10:09:10;8.17;;;5.87;;
25237;SDS011;13185;50.872;5.306;2023-12-07T10:11:36;9.70;;;5.77;;
25237;SDS011;13185;50.872;5.306;2023-12-07T10:14:03;9.57;;;5.77;;
25237;SDS011;13185;50.872;5.306;2023-12-07T10:16:30;10.73;;;6.50;;
25237;SDS011;13185;50.872;5.306;2023-12-07T10:19:12;8.73;;;5.77;;
25237;SDS011;13185;50.872;5.306;2023-12-07T10:21:44;9.60;;;6.27;;
25237;SDS011;13185;50.872;5.306;2023-12-07T10:24:10;9.17;;;5.73;;
25237;SDS011;13185;50.872;5.306;2023-12-07T10:26:36;8.97;;;5.83;;
25237;SDS011;13185;50.872;5.306;2023-12-07T10:29:04;8.23;;;5.17;;
25237;SDS011;13185;50.872;5.306;2023-12-07T10:31:30;9.50;;;6.17;;
25237;SDS011;13185;50.872;5.306;2023-12-07T10:33:57;9.27;;;5.93;;
25237;SDS011;13185;50.872;5.306;2023-12-07T10:36:24;10.43;;;6.23;;
25237;SDS011;13185;50.872;5.306;2023-12-07T10:38:50;7.27;;;5.50;;
25237;SDS011;13185;50.872;5.306;2023-12-07T10:41:16;7.53;;;5.43;;
25237;SDS011;13185;50.872;5.306;2023-12-07T10:43:44;10.53;;;5.70;;
25237;SDS011;13185;50.872;5.306;2023-12-07T10:46:20;15.93;;;5.87;;
25237;SDS011;13185;50.872;5.306;2023-12-07T10:48:51;10.97;;;5.93;;
25237;SDS011;13185;50.872;5.306;2023-12-07T10:51:31;7.70;;;5.27;;
25237;SDS011;13185;50.872;5.306;2023-12-07T10:54:03;8.90;;;5.33;;
25237;SDS011;13185;50.872;5.306;2023-12-07T10:56:35;9.40;;;6.37;;
25237;SDS011;13185;50.872;5.306;2023-12-07T10:59:11;8.67;;;5.60;;
25237;SDS011;13185;50.872;5.306;2023-12-07T11:01:38;10.03;;;6.00;;
25237;SDS011;13185;50.872;5.306;2023-12-07T11:04:05;8.87;;;5.60;;
25237;SDS011;13185;50.872;5.306;2023-12-07T11:06:34;11.00;;;6.20;;
25237;SDS011;13185;50.872;5.306;2023-12-07T11:09:05;8.47;;;5.03;;
25237;SDS011;13185;50.872;5.306;2023-12-07T11:14:11;6.13;;;4.43;;
25237;SDS011;13185;50.872;5.306;2023-12-07T11:16:40;8.47;;;5.67;;
25237;SDS011;13185;50.872;5.306;2023-12-07T11:21:57;9.40;;;5.20;;
25237;SDS011;13185;50.872;5.306;2023-12-07T11:24:24;9.23;;;5.23;;
25237;SDS011;13185;50.872;5.306;2023-12-07T11:26:59;5.80;;;4.17;;
25237;SDS011;13185;50.872;5.306;2023-12-07T11:29:25;8.37;;;5.37;;
25237;SDS011;13185;50.872;5.306;2023-12-07T11:31:55;7.93;;;4.93;;
25237;SDS011;13185;50.872;5.306;2023-12-07T11:37:19;7.73;;;4.33;;
25237;SDS011;13185;50.872;5.306;2023-12-07T11:39:45;8.07;;;4.67;;
25237;SDS011;13185;50.872;5.306;2023-12-07T11:42:11;7.90;;;4.67;;
25237;SDS011;13185;50.872;5.306;2023-12-07T11:44:40;8.20;;;4.83;;
25237;SDS011;13185;50.872;5.306;2023-12-07T11:47:07;8.27;;;5.37;;
25237;SDS011;13185;50.872;5.306;2023-12-07T11:49:34;7.97;;;4.63;;
25237;SDS011;13185;50.872;5.306;2023-12-07T11:52:00;7.03;;;4.20;;
25237;SDS011;13185;50.872;5.306;2023-12-07T11:54:26;6.70;;;4.80;;
25237;SDS011;13185;50.872;5.306;2023-12-07T11:56:56;9.17;;;4.73;;
25237;SDS011;13185;50.872;5.306;2023-12-07T11:59:22;6.50;;;4.77;;
25237;SDS011;13185;50.872;5.306;2023-12-07T12:01:51;10.40;;;4.73;;
25237;SDS011;13185;50.872;5.306;2023-12-07T12:04:17;6.20;;;4.30;;
25237;SDS011;13185;50.872;5.306;2023-12-07T12:06:43;7.57;;;5.03;;
25237;SDS011;13185;50.872;5.306;2023-12-07T12:09:13;7.03;;;4.50;;
25237;SDS011;13185;50.872;5.306;2023-12-07T12:11:46;11.25;;;5.05;;
25237;SDS011;13185;50.872;5.306;2023-12-07T12:14:15;6.90;;;4.67;;
25237;SDS011;13185;50.872;5.306;2023-12-07T12:16:42;9.68;;;4.65;;
25237;SDS011;13185;50.872;5.306;2023-12-07T12:19:09;8.80;;;5.03;;
25237;SDS011;13185;50.872;5.306;2023-12-07T12:21:36;8.27;;;4.90;;
25237;SDS011;13185;50.872;5.306;2023-12-07T12:24:07;6.10;;;4.50;;
25237;SDS011;13185;50.872;5.306;2023-12-07T12:26:37;7.53;;;4.75;;
25237;SDS011;13185;50.872;5.306;2023-12-07T12:29:06;10.43;;;4.73;;
25237;SDS011;13185;50.872;5.306;2023-12-07T12:31:33;7.93;;;4.90;;
25237;SDS011;13185;50.872;5.306;2023-12-07T12:34:03;7.03;;;4.27;;
25237;SDS011;13185;50.872;5.306;2023-12-07T12:36:31;7.90;;;4.57;;
25237;SDS011;13185;50.872;5.306;2023-12-07T12:38:56;6.17;;;4.27;;
25237;SDS011;13185;50.872;5.306;2023-12-07T12:41:22;7.93;;;4.70;;
25237;SDS011;13185;50.872;5.306;2023-12-07T12:43:48;7.35;;;4.22;;
25237;SDS011;13185;50.872;5.306;2023-12-07T12:46:15;7.72;;;4.20;;
25237;SDS011;13185;50.872;5.306;2023-12-07T12:48:54;9.25;;;4.32;;
25237;SDS011;13185;50.872;5.306;2023-12-07T12:51:27;6.80;;;3.97;;
25237;SDS011;13185;50.872;5.306;2023-12-07T12:53:58;6.03;;;3.50;;
25237;SDS011;13185;50.872;5.306;2023-12-07T12:56:24;5.20;;;3.30;;
25237;SDS011;13185;50.872;5.306;2023-12-07T12:58:52;7.03;;;4.43;;
25237;SDS011;13185;50.872;5.306;2023-12-07T13:01:21;5.60;;;3.58;;
25237;SDS011;13185;50.872;5.306;2023-12-07T13:03:47;9.73;;;3.50;;
25237;SDS011;13185;50.872;5.306;2023-12-07T13:06:13;7.32;;;4.32;;
25237;SDS011;13185;50.872;5.306;2023-12-07T13:08:40;7.65;;;4.28;;
25237;SDS011;13185;50.872;5.306;2023-12-07T13:11:06;6.07;;;4.23;;
25237;SDS011;13185;50.872;5.306;2023-12-07T13:13:32;9.73;;;4.53;;
25237;SDS011;13185;50.872;5.306;2023-12-07T13:15:57;6.83;;;3.90;;
25237;SDS011;13185;50.872;5.306;2023-12-07T13:18:23;9.63;;;4.73;;
25237;SDS011;13185;50.872;5.306;2023-12-07T13:20:48;7.07;;;4.25;;
25237;SDS011;13185;50.872;5.306;2023-12-07T13:23:14;11.88;;;4.32;;
25237;SDS011;13185;50.872;5.306;2023-12-07T13:25:39;7.13;;;3.30;;
25237;SDS011;13185;50.872;5.306;2023-12-07T13:28:06;5.38;;;3.00;;
25237;SDS011;13185;50.872;5.306;2023-12-07T13:30:33;4.60;;;3.27;;
25237;SDS011;13185;50.872;5.306;2023-12-07T13:33:03;5.45;;;3.40;;
25237;SDS011;13185;50.872;5.306;2023-12-07T13:35:29;5.80;;;2.83;;
25237;SDS011;13185;50.872;5.306;2023-12-07T13:37:55;7.25;;;3.65;;
25237;SDS011;13185;50.872;5.306;2023-12-07T13:40:20;7.38;;;4.05;;
25237;SDS011;13185;50.872;5.306;2023-12-07T13:42:46;9.23;;;3.65;;
25237;SDS011;13185;50.872;5.306;2023-12-07T13:45:11;11.07;;;3.50;;
25237;SDS011;13185;50.872;5.306;2023-12-07T13:47:37;9.73;;;4.05;;
25237;SDS011;13185;50.872;5.306;2023-12-07T13:50:03;7.97;;;3.28;;
25237;SDS011;13185;50.872;5.306;2023-12-07T13:52:30;17.77;;;4.40;;
25237;SDS011;13185;50.872;5.306;2023-12-07T13:54:56;10.07;;;3.30;;
25237;SDS011;13185;50.872;5.306;2023-12-07T13:57:22;6.80;;;3.58;;
25237;SDS011;13185;50.872;5.306;2023-12-07T13:59:51;9.73;;;3.75;;
25237;SDS011;13185;50.872;5.306;2023-12-07T14:02:18;13.65;;;3.95;;
25237;SDS011;13185;50.872;5.306;2023-12-07T14:04:43;10.82;;;3.78;;
25237;SDS011;13185;50.872;5.306;2023-12-07T14:07:10;8.10;;;3.38;;
25237;SDS011;13185;50.872;5.306;2023-12-07T14:09:39;7.20;;;3.50;;
25237;SDS011;13185;50.872;5.306;2023-12-07T14:12:07;9.40;;;3.50;;
25237;SDS011;13185;50.872;5.306;2023-12-07T14:14:34;8.52;;;3.33;;
25237;SDS011;13185;50.872;5.306;2023-12-07T14:17:00;7.10;;;3.00;;
25237;SDS011;13185;50.872;5.306;2023-12-07T14:19:25;4.85;;;3.25;;
25237;SDS011;13185;50.872;5.306;2023-12-07T14:21:51;4.50;;;3.07;;
25237;SDS011;13185;50.872;5.306;2023-12-07T14:24:17;7.88;;;3.28;;
25237;SDS011;13185;50.872;5.306;2023-12-07T14:26:43;4.45;;;3.00;;
25237;SDS011;13185;50.872;5.306;2023-12-07T14:29:09;6.03;;;3.60;;
25237;SDS011;13185;50.872;5.306;2023-12-07T14:31:40;3.88;;;2.33;;
25237;SDS011;13185;50.872;5.306;2023-12-07T14:34:06;4.28;;;3.15;;
25237;SDS011;13185;50.872;5.306;2023-12-07T14:36:31;7.38;;;3.28;;
25237;SDS011;13185;50.872;5.306;2023-12-07T14:38:57;4.90;;;3.00;;
25237;SDS011;13185;50.872;5.306;2023-12-07T14:41:23;7.22;;;3.15;;
25237;SDS011;13185;50.872;5.306;2023-12-07T14:43:48;6.10;;;3.20;;